Beniel, Spain
Current Conditions -  °F | °C
As of 9:00 PM on Sunday 21 Dec 2014 (Local Time) from LELC Reporting Station
Clear Clear  
Wind Chill: 50°   Ceiling: Unl
Heat Index: 50°   Visibility: 5mi
Dew Point: 46°   Wind: 3mph
Humidity: 87%   Direction: 300°WNW
Pressure: 30.48"   Gusts: NA
Location:  38.05°N, 1°W
Report Text: LELC 212000Z 30003KT 8000 NSC 10/08 Q1032 NOSIG
Loading
Personal Weather Stations






























Interactive Weather Map New forecast layout! Learn more

10-Day Weather Forecast

Advertisements
Track Severe Weather on mobile